Time;durP1;ratioP1;P1;durP2;ratioP2;P2;SDS_P1;SDS_P2;PMS_P1;PMS_P2;Temp;Humidity;BMP_temperature;BMP_pressure;BME280_temperature;BME280_humidity;BME280_pressure;Samples;Min_cycle;Max_cycle;Signal;HPM_P1;HPM_P2
2023/10/17 00:02:12;;;;;;;2.15;1.67;;;6.90;99.90;;;;;;5043581;28;20052;-84
2023/10/17 00:04:42;;;;;;;3.17;1.40;;;6.90;99.90;;;;;;5038486;28;20045;-84
2023/10/17 00:07:09;;;;;;;3.75;1.50;;;6.90;99.90;;;;;;5055928;28;20048;-83
2023/10/17 00:09:36;;;;;;;3.80;1.75;;;6.90;99.90;;;;;;5057817;28;20128;-84
2023/10/17 00:14:45;;;;;;;2.60;1.10;;;6.80;99.90;;;;;;5052266;28;20049;-85
2023/10/17 00:17:16;;;;;;;1.92;1.48;;;6.90;99.90;;;;;;5052817;28;20084;-84
2023/10/17 00:19:44;;;;;;;1.67;1.58;;;6.80;99.90;;;;;;5051562;28;20096;-84
2023/10/17 00:22:18;;;;;;;6.43;1.70;;;6.80;99.90;;;;;;5059510;28;20079;-84
2023/10/17 00:24:46;;;;;;;2.78;1.58;;;6.80;99.90;;;;;;5065319;28;20049;-85
2023/10/17 00:27:14;;;;;;;2.30;1.73;;;6.80;99.90;;;;;;5047860;28;20082;-83
2023/10/17 00:29:41;;;;;;;3.25;1.45;;;6.80;99.90;;;;;;5058295;28;20038;-85
2023/10/17 00:32:12;;;;;;;2.85;1.40;;;6.80;99.90;;;;;;5059335;28;20041;-84
2023/10/17 00:34:40;;;;;;;3.63;1.52;;;6.70;99.90;;;;;;5039110;28;20129;-83
2023/10/17 00:37:19;;;;;;;2.58;1.30;;;6.70;99.90;;;;;;5049376;28;20048;-84
2023/10/17 00:39:47;;;;;;;2.15;1.55;;;6.70;99.90;;;;;;5042689;28;20103;-85
2023/10/17 00:42:34;;;;;;;3.20;1.40;;;6.70;99.90;;;;;;5059877;28;20110;-84
2023/10/17 00:45:01;;;;;;;2.33;1.40;;;6.70;99.90;;;;;;5056119;28;20056;-84
2023/10/17 00:47:28;;;;;;;2.45;1.30;;;6.70;99.90;;;;;;5040340;28;20041;-84
2023/10/17 00:49:59;;;;;;;3.28;1.63;;;6.70;99.90;;;;;;5061970;28;20057;-85
2023/10/17 00:52:32;;;;;;;2.88;1.35;;;6.70;99.90;;;;;;5062684;28;20037;-84
2023/10/17 00:54:59;;;;;;;3.25;1.52;;;6.70;99.90;;;;;;5040885;28;20046;-84
2023/10/17 00:57:26;;;;;;;4.32;1.50;;;6.70;99.90;;;;;;5064538;28;20097;-85
2023/10/17 01:00:10;;;;;;;3.50;1.50;;;6.70;99.90;;;;;;5055935;28;20049;-84
2023/10/17 01:02:44;;;;;;;2.45;1.63;;;6.70;99.90;;;;;;5043898;28;20456;-84
2023/10/17 01:05:12;;;;;;;5.57;1.73;;;6.70;99.90;;;;;;5065688;28;20127;-84
2023/10/17 01:07:41;;;;;;;3.08;1.80;;;6.70;99.90;;;;;;5035648;28;20045;-84
2023/10/17 01:10:17;;;;;;;5.00;1.57;;;6.70;99.90;;;;;;5054578;28;20045;-83
2023/10/17 01:13:04;;;;;;;5.18;1.90;;;6.70;99.90;;;;;;5038005;28;20288;-83
2023/10/17 01:15:38;;;;;;;3.13;1.65;;;6.70;99.90;;;;;;5056440;28;20047;-84
2023/10/17 01:18:05;;;;;;;3.75;1.80;;;6.60;99.90;;;;;;5045342;28;20037;-84
2023/10/17 01:20:34;;;;;;;2.80;1.30;;;6.60;99.90;;;;;;5044317;28;20045;-84
2023/10/17 01:23:01;;;;;;;3.03;1.45;;;6.60;99.90;;;;;;5065347;28;20045;-84
2023/10/17 01:25:35;;;;;;;2.17;1.33;;;6.60;99.90;;;;;;5058506;28;20051;-84
2023/10/17 01:28:05;;;;;;;2.30;1.42;;;6.60;99.90;;;;;;5056890;28;21046;-84
2023/10/17 01:30:32;;;;;;;2.15;1.25;;;6.60;99.90;;;;;;5041309;28;20047;-83
2023/10/17 01:33:00;;;;;;;2.33;1.40;;;6.60;99.90;;;;;;5065788;28;20080;-83
2023/10/17 01:35:27;;;;;;;1.30;1.20;;;6.60;99.90;;;;;;5039595;28;20069;-85
2023/10/17 01:37:55;;;;;;;1.92;1.60;;;6.60;99.90;;;;;;5061419;28;20045;-84
2023/10/17 01:40:22;;;;;;;3.83;1.88;;;6.50;99.90;;;;;;5060070;28;20048;-84
2023/10/17 01:42:51;;;;;;;4.88;1.60;;;6.50;99.90;;;;;;5064849;28;20341;-83
2023/10/17 01:45:30;;;;;;;3.30;2.00;;;6.50;99.90;;;;;;5041102;28;20492;-83
2023/10/17 01:47:58;;;;;;;3.90;1.50;;;6.50;99.90;;;;;;5065960;28;20492;-83
2023/10/17 01:50:26;;;;;;;3.20;1.83;;;6.50;99.90;;;;;;5061818;28;20093;-84
2023/10/17 01:52:53;;;;;;;2.45;2.00;;;6.50;99.90;;;;;;5060375;28;20049;-84
2023/10/17 01:55:27;;;;;;;3.40;1.88;;;6.50;99.90;;;;;;5055985;28;20071;-83
2023/10/17 01:57:57;;;;;;;2.47;1.73;;;6.50;99.90;;;;;;5056117;28;20052;-84
2023/10/17 02:00:36;;;;;;;5.88;1.60;;;6.50;99.90;;;;;;5055612;28;20045;-83
2023/10/17 02:03:05;;;;;;;4.22;2.20;;;6.50;99.90;;;;;;5040054;28;20473;-84
2023/10/17 02:05:36;;;;;;;3.67;2.10;;;6.50;99.90;;;;;;5053539;28;20088;-83
2023/10/17 02:08:05;;;;;;;6.45;1.88;;;6.50;99.90;;;;;;5056352;28;20080;-83
2023/10/17 02:10:32;;;;;;;3.40;1.80;;;6.50;99.90;;;;;;5050895;28;20044;-83
2023/10/17 02:13:00;;;;;;;4.80;1.92;;;6.50;99.90;;;;;;5049480;28;20053;-82
2023/10/17 02:15:27;;;;;;;4.25;1.70;;;6.50;99.90;;;;;;5053965;28;20044;-83
2023/10/17 02:17:57;;;;;;;5.32;2.15;;;6.40;99.90;;;;;;5051878;28;20053;-83
2023/10/17 02:22:54;;;;;;;2.40;1.52;;;6.40;99.90;;;;;;5056209;28;20053;-84
2023/10/17 02:25:34;;;;;;;4.35;1.95;;;6.40;99.90;;;;;;5059480;28;20056;-84
2023/10/17 02:28:02;;;;;;;2.70;1.63;;;6.40;99.90;;;;;;5043648;28;20049;-83
2023/10/17 02:30:29;;;;;;;4.90;2.05;;;6.40;99.90;;;;;;5052719;28;20044;-83
2023/10/17 02:32:56;;;;;;;5.40;2.08;;;6.40;99.90;;;;;;5034014;28;20060;-84
2023/10/17 02:35:28;;;;;;;2.88;1.90;;;6.40;99.90;;;;;;5054809;28;20045;-84
2023/10/17 02:37:59;;;;;;;4.93;1.83;;;6.30;99.90;;;;;;5052082;28;20524;-83
2023/10/17 02:40:27;;;;;;;;;;;6.30;99.90;;;;;;5061013;28;20044;-83
2023/10/17 02:42:55;;;;;;;3.55;2.10;;;6.30;99.90;;;;;;5054570;28;19928;-83
2023/10/17 02:45:25;;;;;;;3.28;2.10;;;6.30;99.90;;;;;;5068273;28;20058;-84
2023/10/17 02:47:57;;;;;;;5.25;2.20;;;6.30;99.90;;;;;;5060427;28;20053;-83
2023/10/17 02:53:00;;;;;;;2.53;1.83;;;6.30;99.90;;;;;;5053665;28;20072;-83
2023/10/17 02:55:28;;;;;;;4.03;1.77;;;6.30;99.90;;;;;;5059173;28;20102;-83
2023/10/17 02:57:55;;;;;;;4.40;1.95;;;6.30;99.90;;;;;;5053421;28;20087;-84
2023/10/17 03:00:23;;;;;;;2.80;2.05;;;6.20;99.90;;;;;;5043277;28;20484;-84
2023/10/17 03:02:55;;;;;;;2.97;1.75;;;6.20;99.90;;;;;;5039656;28;20080;-84
2023/10/17 03:05:24;;;;;;;1.90;1.67;;;6.20;99.90;;;;;;5045279;28;20467;-85
2023/10/17 03:07:51;;;;;;;4.82;1.85;;;6.20;99.90;;;;;;5053732;28;20053;-84
2023/10/17 03:10:37;;;;;;;3.65;2.17;;;6.20;99.90;;;;;;5056186;28;20068;-84
2023/10/17 03:13:23;;;;;;;3.08;2.15;;;6.20;99.90;;;;;;5047272;28;20568;-84
2023/10/17 03:15:55;;;;;;;6.03;1.85;;;6.10;99.90;;;;;;5056782;28;20052;-84
2023/10/17 03:18:22;;;;;;;3.25;2.17;;;6.10;99.90;;;;;;5054692;28;20045;-84
2023/10/17 03:20:52;;;;;;;3.30;1.83;;;6.10;99.90;;;;;;5054499;28;20059;-84
2023/10/17 03:23:20;;;;;;;4.32;2.38;;;6.10;99.90;;;;;;5031927;28;20160;-84
2023/10/17 03:25:47;;;;;;;4.85;2.10;;;6.10;99.90;;;;;;5055988;28;20071;-84
2023/10/17 03:28:15;;;;;;;3.72;1.85;;;6.10;99.90;;;;;;5047052;28;20131;-84
2023/10/17 03:30:43;;;;;;;3.42;1.75;;;6.10;99.90;;;;;;5071058;28;20044;-84
2023/10/17 03:33:14;;;;;;;4.10;2.28;;;6.00;99.90;;;;;;5041111;28;20045;-84
2023/10/17 03:36:04;;;;;;;2.78;1.75;;;6.00;99.90;;;;;;5057282;28;20042;-84
2023/10/17 03:38:33;;;;;;;6.43;1.75;;;6.00;99.90;;;;;;5033399;28;20065;-84
2023/10/17 03:41:06;;;;;;;4.25;2.13;;;6.00;99.90;;;;;;5057915;28;20041;-84
2023/10/17 03:43:39;;;;;;;4.97;2.38;;;6.00;99.90;;;;;;5055411;28;20098;-85
2023/10/17 03:46:07;;;;;;;2.17;1.88;;;6.00;99.90;;;;;;5058731;28;20329;-84
2023/10/17 03:48:37;;;;;;;3.45;2.00;;;6.00;99.90;;;;;;5052183;28;20056;-84
2023/10/17 03:51:13;;;;;;;;;;;6.00;99.90;;;;;;5061835;28;20047;-85
2023/10/17 03:53:42;;;;;;;4.50;2.10;;;6.00;99.90;;;;;;5055847;28;19925;-85
2023/10/17 03:56:19;;;;;;;3.10;2.00;;;5.90;99.90;;;;;;5065089;28;20463;-84
2023/10/17 03:58:52;;;;;;;4.15;1.90;;;5.90;99.90;;;;;;5061771;28;20037;-84
2023/10/17 04:01:18;;;;;;;2.17;1.50;;;5.90;99.90;;;;;;5057578;28;20048;-85
2023/10/17 04:03:47;;;;;;;2.45;1.88;;;5.90;99.90;;;;;;5058566;28;20041;-85
2023/10/17 04:06:34;;;;;;;4.18;2.17;;;5.90;99.90;;;;;;5041036;28;20055;-84
2023/10/17 04:11:58;;;;;;;4.57;2.40;;;5.90;99.90;;;;;;5061317;28;20057;-84
2023/10/17 04:14:43;;;;;;;2.35;1.90;;;5.90;99.90;;;;;;5059202;28;20041;-84
2023/10/17 04:17:14;;;;;;;5.75;2.22;;;5.90;99.90;;;;;;5055235;28;20065;-85
2023/10/17 04:19:42;;;;;;;4.55;2.13;;;5.90;99.90;;;;;;5045716;28;20520;-84
2023/10/17 04:22:14;;;;;;;4.38;2.00;;;5.80;99.90;;;;;;5056927;28;20064;-85
2023/10/17 04:24:48;;;;;;;2.70;2.10;;;5.80;99.90;;;;;;5061677;28;20045;-85
2023/10/17 04:29:50;;;;;;;5.30;2.03;;;5.80;99.90;;;;;;5062174;28;20045;-84
2023/10/17 04:32:19;;;;;;;7.18;2.67;;;5.80;99.90;;;;;;5050629;28;20139;-84
2023/10/17 04:34:48;;;;;;;3.58;2.45;;;5.80;99.90;;;;;;5064725;28;20108;-83
2023/10/17 04:37:24;;;;;;;2.83;2.38;;;5.70;99.90;;;;;;5064838;28;20075;-84
2023/10/17 04:40:20;;;;;;;3.90;2.40;;;5.70;99.90;;;;;;5043781;28;20052;-85
2023/10/17 04:45:20;;;;;;;3.92;2.40;;;5.80;99.90;;;;;;5063373;28;20049;-83
2023/10/17 04:47:47;;;;;;;3.67;2.50;;;5.70;99.90;;;;;;5054540;28;20048;-84
2023/10/17 04:50:15;;;;;;;3.08;2.30;;;5.70;99.90;;;;;;5059255;28;20050;-85
2023/10/17 04:52:44;;;;;;;5.72;2.80;;;5.70;99.90;;;;;;5062606;28;20108;-84
2023/10/17 04:55:18;;;;;;;4.95;3.00;;;5.60;99.90;;;;;;5039128;28;20045;-84
2023/10/17 05:03:14;;;;;;;3.92;2.67;;;5.60;99.90;;;;;;5062090;28;20072;-84
2023/10/17 05:06:00;;;;;;;6.50;2.83;;;5.60;99.90;;;;;;5062616;28;20070;-84
2023/10/17 05:08:49;;;;;;;4.03;2.90;;;5.60;99.90;;;;;;5052856;28;20051;-84
2023/10/17 06:17:40;;;;;;;3.83;3.13;;;5.30;99.90;;;;;;5057020;28;20062;-83
2023/10/17 06:20:16;;;;;;;4.65;3.38;;;5.30;99.90;;;;;;5057708;28;20128;-83
2023/10/17 06:28:20;;;;;;;9.00;3.85;;;5.30;99.90;;;;;;5053027;28;20045;-83
2023/10/17 06:31:34;;;;;;;10.40;3.95;;;5.30;99.90;;;;;;5043790;28;20061;-81
2023/10/17 06:33:37;;;;;;;4.32;3.13;;;5.30;99.90;;;;;;5053782;28;20048;-82
2023/10/17 06:36:15;;;;;;;5.22;2.75;;;5.40;99.90;;;;;;5051034;28;20048;-84
2023/10/17 06:38:47;;;;;;;7.05;4.28;;;5.40;99.90;;;;;;5048944;28;20046;-83
2023/10/17 06:41:16;;;;;;;8.18;4.65;;;5.40;99.90;;;;;;5045969;28;20103;-81
2023/10/17 06:43:49;;;;;;;8.30;4.70;;;5.40;99.90;;;;;;5050156;28;20049;-83
2023/10/17 06:46:28;;;;;;;6.70;4.25;;;5.40;99.90;;;;;;5046964;28;20057;-82
2023/10/17 06:48:57;;;;;;;5.03;4.20;;;5.40;99.90;;;;;;5042629;28;20049;-83
2023/10/17 06:51:33;;;;;;;6.30;3.47;;;5.50;99.90;;;;;;5054793;28;20397;-82
2023/10/17 06:54:07;;;;;;;4.20;3.50;;;5.50;99.90;;;;;;5030271;28;20050;-81
2023/10/17 06:56:41;;;;;;;7.28;4.75;;;5.50;99.90;;;;;;5049522;28;20040;-83
2023/10/17 06:59:24;;;;;;;6.90;5.70;;;5.50;99.90;;;;;;5048674;28;20505;-83
2023/10/17 07:02:09;;;;;;;6.18;5.00;;;5.60;99.90;;;;;;5038296;28;20071;-83
2023/10/17 07:04:37;;;;;;;6.35;5.07;;;5.60;99.90;;;;;;5036637;28;20056;-83
2023/10/17 07:07:04;;;;;;;5.53;4.30;;;5.60;99.90;;;;;;5037364;28;20125;-83
2023/10/17 07:09:38;;;;;;;4.18;3.40;;;5.70;99.90;;;;;;5052879;28;20036;-83
2023/10/17 07:12:06;;;;;;;5.50;3.38;;;5.70;99.90;;;;;;5033562;28;20048;-82
2023/10/17 07:14:36;;;;;;;6.15;3.15;;;5.80;99.90;;;;;;5051832;28;20048;-84
2023/10/17 07:17:17;;;;;;;4.10;3.17;;;5.80;99.90;;;;;;5041062;28;20068;-83
2023/10/17 07:19:46;;;;;;;7.30;4.03;;;5.90;99.90;;;;;;5052831;28;20055;-83
2023/10/17 07:22:15;;;;;;;4.07;3.15;;;5.90;99.90;;;;;;5052837;28;20056;-83
2023/10/17 07:24:48;;;;;;;4.40;3.33;;;5.90;99.90;;;;;;5044410;28;20049;-83
2023/10/17 07:27:33;;;;;;;8.82;3.53;;;6.00;99.90;;;;;;5048364;28;20049;-83
2023/10/17 07:30:03;;;;;;;3.75;3.30;;;6.10;99.90;;;;;;5054298;28;20053;-83
2023/10/17 07:32:33;;;;;;;6.13;4.03;;;6.10;99.90;;;;;;5057854;28;20102;-81
2023/10/17 07:35:04;;;;;;;6.28;4.20;;;6.20;99.90;;;;;;5031649;28;20045;-82
2023/10/17 07:37:48;;;;;;;6.10;5.03;;;6.20;99.90;;;;;;5035673;28;20090;-81
2023/10/17 07:42:42;;;;;;;8.18;5.70;;;6.30;99.90;;;;;;5057315;28;20079;-82
2023/10/17 07:45:16;;;;;;;6.30;4.22;;;6.30;99.90;;;;;;5051851;28;20053;-84
2023/10/17 07:47:51;;;;;;;8.35;5.05;;;6.40;99.90;;;;;;5057623;28;20436;-84
2023/10/17 07:50:18;;;;;;;6.32;4.40;;;6.50;99.90;;;;;;5054589;28;20045;-84
2023/10/17 07:52:50;;;;;;;8.90;4.88;;;6.50;99.90;;;;;;5051453;28;20045;-83
2023/10/17 07:55:35;;;;;;;7.53;5.25;;;6.60;99.90;;;;;;5038738;28;20045;-83
2023/10/17 07:58:09;;;;;;;7.63;4.75;;;6.60;99.90;;;;;;5034552;28;20073;-83
2023/10/17 08:00:36;;;;;;;8.98;5.30;;;6.70;99.90;;;;;;5058622;28;20048;-83
2023/10/17 08:03:14;;;;;;;8.05;5.07;;;6.70;99.90;;;;;;5049453;28;20060;-82
2023/10/17 08:05:45;;;;;;;9.98;6.20;;;6.80;99.90;;;;;;5055128;28;20055;-84
2023/10/17 08:08:15;;;;;;;7.45;5.95;;;6.80;99.90;;;;;;5035413;28;20045;-84
2023/10/17 08:10:48;;;;;;;8.17;5.27;;;6.90;99.90;;;;;;5046126;28;20075;-84
2023/10/17 08:13:15;;;;;;;10.75;5.57;;;7.00;99.90;;;;;;5059554;28;20283;-83
2023/10/17 08:15:51;;;;;;;10.70;5.78;;;7.00;99.90;;;;;;5055901;28;20060;-83
2023/10/17 08:18:22;;;;;;;8.48;5.65;;;7.10;99.90;;;;;;5050484;28;20050;-83
2023/10/17 08:23:29;;;;;;;7.90;5.32;;;7.20;99.90;;;;;;5049102;28;20088;-84
2023/10/17 08:25:59;;;;;;;7.78;5.90;;;7.20;99.90;;;;;;5045342;28;20099;-84
2023/10/17 08:28:33;;;;;;;8.00;5.65;;;7.20;99.90;;;;;;5055783;28;20072;-83
2023/10/17 08:33:56;;;;;;;8.88;5.80;;;7.30;99.90;;;;;;5044356;28;20067;-83
2023/10/17 08:36:28;;;;;;;8.00;5.55;;;7.40;99.90;;;;;;5051703;28;20056;-83
2023/10/17 08:38:55;;;;;;;9.90;6.05;;;7.40;99.90;;;;;;5042153;28;20048;-84
2023/10/17 08:41:23;;;;;;;9.02;5.53;;;7.50;99.90;;;;;;5046585;28;20057;-83
2023/10/17 08:43:50;;;;;;;16.88;6.03;;;7.50;99.90;;;;;;5053469;28;20116;-83
2023/10/17 08:46:17;;;;;;;11.20;6.20;;;7.50;99.90;;;;;;5038366;28;20050;-84
2023/10/17 08:48:44;;;;;;;11.20;6.18;;;7.60;99.90;;;;;;5042517;28;20083;-83
2023/10/17 08:51:15;;;;;;;10.00;5.35;;;7.60;99.90;;;;;;5037489;28;20053;-84
2023/10/17 08:53:54;;;;;;;7.50;5.57;;;7.70;99.90;;;;;;5056631;28;20103;-84
2023/10/17 08:56:22;;;;;;;6.45;4.97;;;7.70;99.90;;;;;;5057739;28;20734;-83
2023/10/17 08:59:03;;;;;;;9.85;4.72;;;7.80;99.90;;;;;;5057963;28;20049;-84
2023/10/17 09:01:30;;;;;;;8.48;4.97;;;7.80;99.90;;;;;;5050496;28;20099;-83
2023/10/17 09:03:57;;;;;;;5.93;4.68;;;7.90;99.90;;;;;;5039272;28;20417;-83
2023/10/17 09:09:00;;;;;;;10.05;4.47;;;8.00;99.90;;;;;;5051917;28;20110;-82
2023/10/17 09:11:30;;;;;;;8.02;4.32;;;8.10;99.90;;;;;;5049361;28;20048;-84
2023/10/17 09:14:15;;;;;;;9.00;4.85;;;8.10;99.90;;;;;;5051660;28;20497;-82
2023/10/17 09:17:03;;;;;;;6.38;3.90;;;8.20;99.90;;;;;;5057420;28;20040;-84
2023/10/17 09:19:45;;;;;;;8.65;5.45;;;8.30;99.90;;;;;;5050057;28;20559;-84
2023/10/17 09:22:16;;;;;;;7.88;5.35;;;8.40;99.90;;;;;;5050993;28;20102;-83
2023/10/17 09:24:48;;;;;;;7.10;4.90;;;8.40;99.90;;;;;;5061469;28;20491;-82
2023/10/17 09:27:15;;;;;;;9.40;4.50;;;8.50;99.90;;;;;;5052443;28;20130;-83
2023/10/17 09:29:47;;;;;;;7.50;5.65;;;8.50;99.90;;;;;;5053512;28;20491;-84
2023/10/17 09:32:35;;;;;;;8.10;5.70;;;8.60;99.90;;;;;;5051146;28;20053;-84
2023/10/17 09:35:13;;;;;;;11.30;5.00;;;8.70;99.90;;;;;;5053056;28;20075;-83
2023/10/17 09:37:51;;;;;;;8.52;5.25;;;8.80;99.90;;;;;;5058282;28;20120;-84
2023/10/17 09:40:33;;;;;;;7.78;5.32;;;8.80;99.90;;;;;;5056206;28;20049;-83
2023/10/17 09:43:01;;;;;;;9.00;5.18;;;8.90;99.90;;;;;;5050932;28;20053;-83
2023/10/17 09:45:33;;;;;;;7.72;4.90;;;9.00;99.90;;;;;;5054563;28;20053;-84
2023/10/17 09:48:06;;;;;;;7.75;5.47;;;9.00;99.90;;;;;;5042274;28;20045;-83
2023/10/17 09:50:37;;;;;;;8.30;4.97;;;9.10;99.90;;;;;;5051568;28;20092;-84
2023/10/17 09:53:16;;;;;;;8.07;5.10;;;9.20;99.90;;;;;;5060208;28;20424;-85
2023/10/17 09:55:48;;;;;;;10.20;5.13;;;9.20;99.90;;;;;;5057222;28;20508;-83
2023/10/17 09:58:21;;;;;;;8.98;5.22;;;9.30;99.90;;;;;;5054878;28;20049;-83
2023/10/17 10:00:53;;;;;;;5.68;5.00;;;9.40;99.90;;;;;;5054899;28;20049;-84
2023/10/17 10:03:24;;;;;;;10.00;4.95;;;9.50;99.90;;;;;;5030252;28;20099;-82
2023/10/17 10:05:53;;;;;;;8.35;5.05;;;9.50;99.90;;;;;;5042417;28;20496;-83
2023/10/17 10:08:33;;;;;;;6.13;4.97;;;9.60;99.90;;;;;;5056270;28;20082;-84
2023/10/17 10:11:01;;;;;;;7.50;4.97;;;9.60;99.90;;;;;;5054743;28;20095;-84
2023/10/17 10:13:28;;;;;;;10.30;4.88;;;9.70;99.90;;;;;;5050532;28;20052;-83
2023/10/17 10:16:01;;;;;;;10.15;5.05;;;9.70;99.90;;;;;;5043045;28;20045;-84
2023/10/17 10:18:51;;;;;;;9.73;6.35;;;9.80;99.90;;;;;;5045323;28;20083;-85
2023/10/17 10:21:18;;;;;;;12.65;7.32;;;9.90;99.90;;;;;;5055542;28;20049;-82
2023/10/17 10:23:46;;;;;;;11.57;7.32;;;10.00;99.90;;;;;;5058551;28;20048;-84
2023/10/17 10:26:17;;;;;;;8.10;5.70;;;10.00;99.90;;;;;;5033272;28;20088;-84
2023/10/17 10:28:44;;;;;;;9.50;5.32;;;10.00;99.90;;;;;;5054916;28;20138;-83
2023/10/17 10:31:24;;;;;;;8.85;4.97;;;10.10;99.90;;;;;;5031844;28;20881;-83
2023/10/17 10:33:53;;;;;;;7.80;5.15;;;10.10;99.90;;;;;;5029958;28;20428;-83
2023/10/17 10:36:24;;;;;;;7.30;5.05;;;10.20;99.90;;;;;;5054829;28;20113;-84
2023/10/17 10:38:55;;;;;;;8.77;5.00;;;10.20;99.90;;;;;;5038340;28;20052;-84
2023/10/17 10:41:22;;;;;;;7.45;5.05;;;10.30;99.90;;;;;;5048159;28;20081;-82
2023/10/17 10:43:58;;;;;;;8.00;5.50;;;10.30;99.90;;;;;;5054075;28;20061;-84
2023/10/17 10:46:25;;;;;;;8.93;5.63;;;10.40;99.90;;;;;;5058153;28;20053;-84
2023/10/17 10:48:53;;;;;;;12.40;5.40;;;10.50;99.90;;;;;;5042571;28;20082;-81
2023/10/17 10:51:27;;;;;;;8.88;5.70;;;10.50;99.90;;;;;;5056373;28;20501;-84
2023/10/17 10:53:54;;;;;;;9.65;6.35;;;10.60;99.90;;;;;;5038805;28;20516;-85
2023/10/17 10:56:22;;;;;;;9.63;6.55;;;10.60;99.90;;;;;;5053023;28;20044;-83
2023/10/17 10:58:53;;;;;;;7.63;4.63;;;10.70;99.90;;;;;;5049497;28;20048;-84
2023/10/17 11:01:20;;;;;;;;;;;10.70;99.90;;;;;;5049513;28;20052;-84
2023/10/17 11:03:49;;;;;;;8.00;5.95;;;10.70;99.90;;;;;;5036817;28;19986;-85
2023/10/17 11:06:25;;;;;;;9.75;5.15;;;10.80;99.90;;;;;;5051180;28;20049;-84
2023/10/17 11:08:54;;;;;;;7.03;5.03;;;10.80;99.90;;;;;;5053209;28;20055;-84
2023/10/17 11:11:21;;;;;;;8.23;5.03;;;10.90;99.90;;;;;;5047012;28;20103;-85
2023/10/17 11:13:50;;;;;;;8.93;5.18;;;10.90;99.90;;;;;;5033494;28;20105;-84
2023/10/17 11:16:25;;;;;;;9.18;4.93;;;11.00;99.90;;;;;;5033049;28;20061;-82
2023/10/17 11:18:53;;;;;;;9.55;5.55;;;11.10;99.90;;;;;;5054316;28;20516;-84
2023/10/17 11:21:22;;;;;;;10.43;5.22;;;11.10;99.90;;;;;;5055333;28;20148;-83
2023/10/17 11:23:54;;;;;;;10.10;5.83;;;11.20;99.90;;;;;;5056762;28;20044;-84
2023/10/17 11:26:25;;;;;;;8.63;5.53;;;11.20;99.90;;;;;;5048415;28;20288;-83
2023/10/17 11:28:56;;;;;;;13.85;4.95;;;11.30;99.90;;;;;;5060202;28;20056;-82
2023/10/17 11:31:26;;;;;;;7.70;4.95;;;11.30;99.90;;;;;;5049638;28;20049;-84
2023/10/17 11:33:55;;;;;;;9.65;5.25;;;11.40;99.90;;;;;;5063403;28;20496;-84
2023/10/17 11:36:23;;;;;;;8.40;4.60;;;11.50;99.90;;;;;;5055782;28;20060;-84
2023/10/17 11:38:58;;;;;;;7.82;4.93;;;11.50;99.90;;;;;;5058113;28;20075;-83
2023/10/17 11:41:40;;;;;;;6.70;5.15;;;11.60;99.90;;;;;;5048363;28;20045;-83
2023/10/17 11:44:09;;;;;;;7.63;4.50;;;11.60;99.90;;;;;;5055689;28;20585;-84
2023/10/17 11:46:37;;;;;;;7.18;4.90;;;11.70;99.90;;;;;;5054072;28;20305;-85
2023/10/17 11:49:26;;;;;;;9.15;4.95;;;11.80;99.90;;;;;;5058392;28;20048;-82
2023/10/17 11:52:00;;;;;;;7.53;4.22;;;11.90;99.90;;;;;;5035807;28;20045;-83
2023/10/17 11:54:27;;;;;;;8.63;4.43;;;12.00;99.90;;;;;;5058068;28;20095;-84
2023/10/17 11:57:13;;;;;;;6.78;4.35;;;12.10;99.90;;;;;;5050744;28;20050;-85
2023/10/17 11:59:57;;;;;;;10.88;5.47;;;12.20;99.90;;;;;;5052339;28;20101;-84
2023/10/17 12:02:25;;;;;;;6.20;3.97;;;12.30;99.90;;;;;;5056133;28;20448;-84
2023/10/17 12:04:53;;;;;;;7.10;4.30;;;12.40;99.90;;;;;;5055843;28;20080;-84
2023/10/17 12:07:20;;;;;;;8.70;5.47;;;12.50;99.90;;;;;;5050427;28;20135;-83
2023/10/17 12:09:47;;;;;;;8.40;4.80;;;12.50;99.90;;;;;;5058610;28;20064;-85
2023/10/17 12:12:18;;;;;;;6.18;4.10;;;12.60;99.90;;;;;;5029405;28;20046;-85
2023/10/17 12:14:47;;;;;;;6.13;3.60;;;12.60;99.90;;;;;;5056541;28;20046;-84
2023/10/17 12:17:18;;;;;;;5.70;3.80;;;12.70;99.90;;;;;;5056177;28;20050;-85
2023/10/17 12:19:46;;;;;;;4.90;3.92;;;12.80;99.90;;;;;;5057581;28;20037;-83
2023/10/17 12:22:14;;;;;;;8.40;3.75;;;12.80;99.90;;;;;;5035612;28;20056;-83
2023/10/17 12:24:42;;;;;;;7.03;4.00;;;12.90;99.90;;;;;;5061058;28;20061;-84
2023/10/17 12:27:12;;;;;;;10.75;4.32;;;12.90;99.90;;;;;;5058119;28;20500;-85
2023/10/17 12:29:40;;;;;;;8.60;4.28;;;13.00;99.90;;;;;;5061479;28;20540;-83
2023/10/17 12:32:10;;;;;;;5.20;3.78;;;13.00;99.90;;;;;;5059407;28;20045;-84
2023/10/17 12:34:39;;;;;;;6.45;4.00;;;13.00;99.90;;;;;;5041109;28;20041;-84
2023/10/17 12:37:10;;;;;;;5.78;3.60;;;13.10;99.90;;;;;;5054372;28;20042;-85
2023/10/17 12:39:37;;;;;;;4.78;3.42;;;13.10;99.90;;;;;;5055446;28;20053;-85
2023/10/17 12:42:05;;;;;;;9.07;3.65;;;13.20;99.90;;;;;;5051176;28;20067;-83
2023/10/17 12:44:32;;;;;;;5.93;4.05;;;13.20;99.90;;;;;;5041106;28;20320;-82
2023/10/17 12:46:59;;;;;;;9.98;3.97;;;13.20;99.90;;;;;;5059046;28;20098;-84
2023/10/17 12:49:26;;;;;;;8.13;3.80;;;13.30;99.90;;;;;;5053564;28;20061;-84
2023/10/17 12:51:53;;;;;;;5.68;3.80;;;13.40;99.90;;;;;;5035295;28;20140;-85
2023/10/17 12:54:20;;;;;;;6.85;3.25;;;13.50;99.90;;;;;;5054533;28;20453;-83
2023/10/17 12:56:47;;;;;;;8.20;4.00;;;13.50;99.90;;;;;;5049181;28;20046;-84
2023/10/17 12:59:14;;;;;;;8.85;3.67;;;13.60;99.90;;;;;;5059011;28;20049;-85
2023/10/17 13:01:41;;;;;;;6.85;3.70;;;13.60;99.90;;;;;;5058027;28;20041;-84
2023/10/17 13:04:09;;;;;;;5.93;3.45;;;13.60;99.90;;;;;;5057059;28;20044;-85
2023/10/17 13:06:38;;;;;;;4.78;3.35;;;13.70;99.90;;;;;;5051203;28;20459;-84
2023/10/17 13:09:05;;;;;;;6.93;3.38;;;13.70;99.90;;;;;;5045962;28;20096;-84
2023/10/17 13:11:32;;;;;;;6.38;3.65;;;13.80;99.90;;;;;;5050369;28;20049;-84
2023/10/17 13:13:59;;;;;;;7.03;4.03;;;13.80;99.90;;;;;;5047051;28;20419;-83
2023/10/17 13:16:29;;;;;;;5.95;3.38;;;13.90;99.90;;;;;;5039867;28;20126;-84
2023/10/17 13:18:56;;;;;;;7.53;4.20;;;13.90;99.90;;;;;;5060947;28;20534;-84
2023/10/17 13:21:26;;;;;;;5.05;3.30;;;14.00;99.90;;;;;;5051788;28;20143;-84
2023/10/17 13:23:55;;;;;;;6.38;3.65;;;14.00;99.90;;;;;;5059915;28;20049;-83
2023/10/17 13:26:23;;;;;;;9.60;3.40;;;14.10;99.90;;;;;;5055397;28;20080;-84
2023/10/17 13:28:49;;;;;;;7.15;3.50;;;14.10;99.90;;;;;;5064633;28;20045;-85
2023/10/17 13:31:16;;;;;;;6.45;3.08;;;14.20;99.90;;;;;;5057744;28;20076;-85
2023/10/17 13:33:49;;;;;;;5.85;3.30;;;14.20;99.90;;;;;;5041525;28;20045;-83
2023/10/17 13:36:16;;;;;;;4.93;3.17;;;14.20;99.90;;;;;;5052872;28;20044;-85
2023/10/17 13:38:43;;;;;;;5.25;3.70;;;14.20;99.90;;;;;;5041023;28;20041;-84
2023/10/17 13:41:11;;;;;;;6.80;3.50;;;14.20;99.90;;;;;;5056412;28;20049;-84
2023/10/17 13:43:38;;;;;;;6.75;3.55;;;14.20;99.90;;;;;;5062274;28;20045;-84
2023/10/17 13:46:13;;;;;;;6.72;3.55;;;14.20;99.90;;;;;;5058921;28;20049;-84
2023/10/17 13:48:48;;;;;;;9.60;3.47;;;14.20;99.90;;;;;;5057743;28;20036;-85
2023/10/17 13:51:16;;;;;;;5.50;3.30;;;14.10;99.90;;;;;;5048957;28;20041;-84
2023/10/17 13:53:44;;;;;;;8.55;3.47;;;14.10;99.90;;;;;;5058086;28;20045;-84
2023/10/17 13:56:12;;;;;;;6.35;3.20;;;14.10;99.90;;;;;;5059367;28;20040;-83
2023/10/17 13:58:41;;;;;;;5.50;2.80;;;14.10;99.90;;;;;;5061083;28;20073;-84
2023/10/17 14:01:45;;;;;;;7.32;3.10;;;14.10;99.90;;;;;;5055703;28;20044;-85
2023/10/17 14:04:02;;;;;;;7.78;2.88;;;14.10;99.90;;;;;;5051437;28;20047;-83
2023/10/17 14:06:39;;;;;;;5.82;2.83;;;14.10;99.90;;;;;;5030627;28;20041;-84
2023/10/17 14:09:17;;;;;;;9.73;3.05;;;14.10;99.90;;;;;;5058503;28;20036;-84
2023/10/17 14:11:48;;;;;;;7.05;2.80;;;14.10;99.90;;;;;;5047426;28;20441;-85
2023/10/17 14:14:15;;;;;;;9.18;2.83;;;14.10;99.90;;;;;;5048304;28;20037;-85
2023/10/17 14:16:43;;;;;;;5.05;2.60;;;14.10;99.90;;;;;;5037769;28;20046;-84
2023/10/17 14:27:29;;;;;;;6.00;2.67;;;14.20;99.90;;;;;;5054997;28;20056;-85
2023/10/17 14:29:58;;;;;;;6.38;2.60;;;14.30;99.90;;;;;;5051581;28;20133;-85
2023/10/17 14:32:27;;;;;;;7.30;2.47;;;14.30;99.90;;;;;;5054042;28;20408;-84
2023/10/17 14:34:56;;;;;;;6.80;2.75;;;14.40;99.90;;;;;;5045695;28;20050;-85
2023/10/17 14:37:23;;;;;;;3.72;2.40;;;14.40;99.90;;;;;;5035358;28;20041;-84
2023/10/17 14:39:54;;;;;;;4.65;2.60;;;14.40;99.90;;;;;;5038934;28;20072;-84
2023/10/17 14:42:21;;;;;;;7.97;2.45;;;14.40;99.90;;;;;;5056339;28;20045;-84
2023/10/17 14:44:52;;;;;;;10.00;2.90;;;14.40;99.90;;;;;;5053903;28;20053;-85
2023/10/17 14:47:19;;;;;;;5.43;2.70;;;14.40;99.90;;;;;;5055095;28;20072;-84
2023/10/17 14:49:47;;;;;;;7.43;3.30;;;14.40;99.90;;;;;;5040674;28;20047;-83
2023/10/17 14:52:15;;;;;;;4.35;3.00;;;14.40;99.90;;;;;;5055450;28;20040;-84
2023/10/17 14:54:45;;;;;;;7.90;4.07;;;14.40;99.90;;;;;;5058042;28;20124;-84
2023/10/17 14:57:13;;;;;;;6.35;2.80;;;14.30;99.90;;;;;;5047271;28;20052;-84
2023/10/17 14:59:44;;;;;;;4.43;2.92;;;14.30;99.90;;;;;;5049439;28;20419;-85
2023/10/17 15:02:10;;;;;;;;;;;14.30;99.90;;;;;;5036702;28;20045;-84
2023/10/17 15:04:38;;;;;;;6.20;3.25;;;14.20;99.90;;;;;;5026371;28;19924;-83
2023/10/17 15:07:06;;;;;;;10.32;3.45;;;14.20;99.90;;;;;;5055523;28;20052;-84